Time;durP1;ratioP1;P1;durP2;ratioP2;P2;SDS_P1;SDS_P2;PMS_P1;PMS_P2;Temp;Humidity;BMP_temperature;BMP_pressure;BME280_temperature;BME280_humidity;BME280_pressure;Samples;Min_cycle;Max_cycle;Signal;HPM_P1;HPM_P2
2022/05/11 00:04:30;;;;;;;4.72;2.63;;;19.70;93.10;;;;;;5087551;27;20066;-82
2022/05/11 00:07:10;;;;;;;3.70;2.80;;;19.60;93.10;;;;;;5078698;27;20063;-83
2022/05/11 00:10:11;;;;;;;6.15;3.08;;;19.70;93.20;;;;;;5097806;27;20044;-83
2022/05/11 00:12:48;;;;;;;3.25;2.40;;;19.60;93.30;;;;;;5073497;27;20101;-83
2022/05/11 00:15:29;;;;;;;4.05;2.80;;;19.60;93.30;;;;;;5074593;27;20135;-83
2022/05/11 00:18:28;;;;;;;;;;;;;;;;;;;;;
2022/05/11 00:21:19;;;;;;;;;;;;;;;;;;;;;
2022/05/11 00:24:07;;;;;;;7.10;2.63;;;19.60;93.50;;;;;;5081460;27;40248;-83
2022/05/11 00:27:01;;;;;;;5.53;2.65;;;20.30;93.70;;;;;;5064999;27;20044;-82
2022/05/11 00:29:53;;;;;;;4.35;2.80;;;19.30;93.50;;;;;;5070005;27;20048;-83
2022/05/11 00:32:25;;;;;;;4.10;2.70;;;19.50;93.70;;;;;;5057371;27;20053;-82
2022/05/11 00:35:26;;;;;;;4.53;2.60;;;19.40;93.70;;;;;;5080985;27;20056;-83
2022/05/11 00:38:05;;;;;;;4.05;2.75;;;19.40;93.80;;;;;;5053814;27;20048;-82
2022/05/11 00:40:56;;;;;;;3.55;2.38;;;19.20;93.80;;;;;;5065775;28;20040;-82
2022/05/11 00:44:26;;;;;;;4.80;2.38;;;19.40;94.00;;;;;;5095244;27;20048;-84
2022/05/11 00:47:26;;;;;;;4.22;2.53;;;19.20;94.00;;;;;;5058785;27;20522;-83
2022/05/11 00:50:09;;;;;;;5.00;2.50;;;19.00;94.10;;;;;;5095395;27;20051;-83
2022/05/11 00:53:11;;;;;;;4.10;2.45;;;19.50;94.30;;;;;;5078729;27;20072;-82
2022/05/11 00:56:22;;;;;;;5.13;2.60;;;19.60;94.40;;;;;;5077102;27;20604;-83
2022/05/11 00:59:04;;;;;;;4.40;1.98;;;19.00;94.40;;;;;;5092334;27;20097;-83
2022/05/11 01:01:39;;;;;;;4.25;2.63;;;19.20;94.50;;;;;;5079987;27;20046;-82
2022/05/11 01:04:15;;;;;;;3.85;2.03;;;19.20;94.60;;;;;;5078827;27;20044;-83
2022/05/11 01:06:55;;;;;;;5.45;2.90;;;19.10;94.70;;;;;;5102787;27;20040;-82
2022/05/11 01:09:26;;;;;;;12.18;2.30;;;19.10;94.80;;;;;;5076046;27;20049;-82
2022/05/11 01:12:06;;;;;;;5.00;2.53;;;19.20;95.00;;;;;;5083364;27;20097;-82
2022/05/11 01:17:51;;;;;;;6.03;2.88;;;19.00;95.10;;;;;;5093250;27;20058;-84
2022/05/11 01:20:35;;;;;;;4.00;2.45;;;19.00;95.20;;;;;;5104748;27;20036;-82
2022/05/11 01:24:00;;;;;;;3.75;2.42;;;19.40;95.30;;;;;;5076313;27;20047;-83
2022/05/11 01:26:27;;;;;;;4.63;3.15;;;18.70;95.20;;;;;;5023971;28;20118;-82
2022/05/11 01:29:10;;;;;;;5.47;3.50;;;19.10;95.30;;;;;;5026451;28;20109;-82
2022/05/11 01:32:01;;;;;;;3.97;2.30;;;18.90;95.40;;;;;;5052205;27;20536;-83
2022/05/11 01:34:35;;;;;;;3.60;2.53;;;18.90;95.40;;;;;;5084732;27;20040;-83
2022/05/11 01:37:11;;;;;;;5.07;2.90;;;19.00;95.50;;;;;;5122400;27;20449;-83
2022/05/11 01:39:49;;;;;;;4.35;2.15;;;18.80;95.50;;;;;;5102328;27;20098;-82
2022/05/11 01:48:04;;;;;;;3.42;2.47;;;18.80;95.70;;;;;;5104921;27;20126;-83
2022/05/11 01:51:16;;;;;;;3.78;2.67;;;18.60;95.70;;;;;;5117321;27;20055;-83
2022/05/11 01:53:46;;;;;;;4.55;2.67;;;18.90;95.80;;;;;;5100569;27;20067;-82
2022/05/11 01:56:31;;;;;;;4.03;2.60;;;18.30;95.70;;;;;;5100420;27;20044;-82
2022/05/11 01:59:11;;;;;;;5.40;2.97;;;18.70;95.90;;;;;;5099087;27;20062;-83
2022/05/11 02:01:50;;;;;;;5.88;3.20;;;18.70;95.90;;;;;;5102331;27;20134;-82
2022/05/11 02:10:17;;;;;;;3.83;2.35;;;18.60;96.10;;;;;;5109500;27;20052;-82
2022/05/11 02:12:50;;;;;;;6.43;2.72;;;18.50;96.10;;;;;;5102529;27;20825;-82
2022/05/11 02:15:34;;;;;;;4.07;2.30;;;18.50;96.20;;;;;;5107569;27;20104;-82
2022/05/11 02:18:11;;;;;;;3.83;2.67;;;18.50;96.30;;;;;;5116103;27;20120;-82
2022/05/11 02:20:49;;;;;;;4.20;2.85;;;18.60;96.40;;;;;;5105153;27;20043;-82
2022/05/11 02:23:28;;;;;;;6.47;3.10;;;18.40;96.40;;;;;;5107429;27;21192;-82
2022/05/11 02:25:54;;;;;;;3.80;2.90;;;18.40;96.50;;;;;;5106670;27;20085;-82
2022/05/11 02:28:31;;;;;;;4.38;3.10;;;18.30;96.50;;;;;;5111728;27;20044;-82
2022/05/11 02:31:04;;;;;;;5.88;2.72;;;18.30;96.50;;;;;;5103311;27;20087;-83
2022/05/11 02:33:35;;;;;;;7.10;2.97;;;18.30;96.60;;;;;;5107299;27;20131;-82
2022/05/11 02:36:25;;;;;;;7.25;3.88;;;18.20;96.60;;;;;;5103394;27;20530;-82
2022/05/11 02:39:13;;;;;;;6.40;3.83;;;18.20;96.60;;;;;;5111326;27;20051;-82
2022/05/11 02:41:47;;;;;;;4.53;2.92;;;18.20;96.60;;;;;;5119966;27;20489;-84
2022/05/11 02:44:26;;;;;;;5.60;3.47;;;17.80;96.50;;;;;;5098466;27;20053;-83
2022/05/11 02:47:20;;;;;;;5.70;3.20;;;18.10;96.70;;;;;;5101584;27;20043;-82
2022/05/11 02:50:09;;;;;;;4.35;2.75;;;18.10;96.60;;;;;;5118466;27;20153;-82
2022/05/11 02:52:42;;;;;;;5.22;3.42;;;17.90;96.70;;;;;;5121094;27;20186;-83
2022/05/11 02:55:50;;;;;;;5.03;3.08;;;18.20;96.70;;;;;;5118394;27;20533;-82
2022/05/11 02:58:36;;;;;;;4.85;2.80;;;18.10;96.70;;;;;;5120318;27;20051;-82
2022/05/11 03:01:10;;;;;;;6.35;3.83;;;18.50;96.90;;;;;;5091021;27;21089;-83
2022/05/11 03:03:41;;;;;;;5.40;3.00;;;17.90;96.80;;;;;;5100792;27;20575;-82
2022/05/11 03:06:19;;;;;;;5.85;3.78;;;17.90;96.80;;;;;;5099535;27;20111;-82
2022/05/11 03:09:05;;;;;;;7.00;3.90;;;17.90;96.80;;;;;;5117957;27;20174;-84
2022/05/11 03:11:45;;;;;;;7.30;4.38;;;17.80;96.80;;;;;;5093401;27;20071;-82
2022/05/11 03:14:25;;;;;;;8.38;3.22;;;17.80;96.80;;;;;;5117093;27;20580;-82
2022/05/11 03:19:52;;;;;;;5.32;3.10;;;17.80;96.90;;;;;;5116776;27;20070;-82
2022/05/11 03:22:47;;;;;;;6.45;3.83;;;17.70;96.90;;;;;;5101821;27;20082;-82
2022/05/11 03:25:19;;;;;;;6.03;3.53;;;17.70;97.00;;;;;;5115413;27;20051;-83
2022/05/11 03:27:53;;;;;;;;;;;17.40;96.90;;;;;;5121533;27;20073;-82
2022/05/11 03:30:32;;;;;;;4.68;3.10;;;17.10;96.90;;;;;;5097202;27;19919;-83
2022/05/11 03:36:50;;;;;;;9.40;3.40;;;17.50;97.10;;;;;;5128006;27;20060;-82
2022/05/11 03:39:28;;;;;;;5.63;3.97;;;17.50;97.20;;;;;;5119363;27;20126;-83
2022/05/11 03:42:29;;;;;;;5.00;3.25;;;17.50;97.20;;;;;;5104466;27;20881;-82
2022/05/11 03:45:17;;;;;;;5.97;3.55;;;17.40;97.30;;;;;;5120062;27;20055;-83
2022/05/11 03:48:02;;;;;;;9.30;3.70;;;17.40;97.40;;;;;;5100632;27;20051;-82
2022/05/11 03:50:45;;;;;;;8.77;3.60;;;17.40;97.40;;;;;;5106361;27;20051;-83
2022/05/11 03:53:30;;;;;;;4.97;3.28;;;17.40;97.40;;;;;;5107270;27;20176;-82
2022/05/11 03:56:28;;;;;;;4.07;3.10;;;17.40;97.40;;;;;;5108721;27;20048;-82
2022/05/11 03:59:07;;;;;;;4.72;2.83;;;17.50;97.60;;;;;;5110929;27;20311;-83
2022/05/11 04:01:42;;;;;;;4.65;3.10;;;17.30;97.60;;;;;;5109761;27;20307;-82
2022/05/11 04:04:15;;;;;;;4.60;3.03;;;17.30;97.60;;;;;;5110716;27;20097;-82
2022/05/11 04:06:43;;;;;;;4.90;2.90;;;17.30;97.70;;;;;;5111229;27;20057;-82
2022/05/11 04:09:28;;;;;;;8.13;3.67;;;17.30;97.70;;;;;;5130312;27;20035;-82
2022/05/11 04:11:59;;;;;;;4.30;2.97;;;17.30;97.70;;;;;;5103497;27;20116;-82
2022/05/11 04:14:48;;;;;;;4.78;2.97;;;17.30;97.70;;;;;;5122958;27;20549;-83
2022/05/11 04:17:30;;;;;;;4.85;3.40;;;17.30;97.90;;;;;;5102874;27;20047;-82
2022/05/11 04:19:59;;;;;;;6.68;2.90;;;17.30;97.80;;;;;;5125041;27;20090;-82
2022/05/11 04:22:55;;;;;;;9.75;4.15;;;17.20;97.90;;;;;;5125981;27;20117;-81
2022/05/11 04:25:36;;;;;;;4.47;3.13;;;17.80;98.00;;;;;;5108052;27;20059;-82
2022/05/11 04:28:28;;;;;;;6.65;2.92;;;17.00;97.90;;;;;;5128752;27;20047;-82
2022/05/11 04:31:24;;;;;;;6.43;2.85;;;17.10;98.00;;;;;;5123614;27;20056;-82
2022/05/11 04:33:53;;;;;;;5.65;3.80;;;17.20;98.10;;;;;;5110763;27;21276;-82
2022/05/11 04:36:25;;;;;;;4.47;2.60;;;17.20;98.10;;;;;;5106385;27;20052;-82
2022/05/11 04:39:01;;;;;;;4.97;3.28;;;17.20;98.20;;;;;;5122029;27;20055;-83
2022/05/11 04:41:53;;;;;;;6.10;3.10;;;17.20;98.20;;;;;;5107447;27;21115;-81
2022/05/11 04:44:28;;;;;;;5.23;3.47;;;17.20;98.20;;;;;;5123770;27;20032;-82
2022/05/11 04:47:16;;;;;;;;;;;;;;;;;;;;;
2022/05/11 04:50:04;;;;;;;6.65;3.00;;;17.10;98.30;;;;;;5102088;27;39558;-82
2022/05/11 04:55:52;;;;;;;8.52;3.80;;;16.60;98.30;;;;;;5103123;27;20036;-83
2022/05/11 04:58:28;;;;;;;4.90;3.20;;;17.30;98.60;;;;;;5106429;27;20039;-83
2022/05/11 05:01:24;;;;;;;8.50;3.42;;;17.10;98.50;;;;;;5105954;27;20050;-82
2022/05/11 05:04:01;;;;;;;4.50;2.90;;;17.10;98.60;;;;;;5103626;27;21226;-82
2022/05/11 05:06:52;;;;;;;;;;;;;;;;;;;;;
2022/05/11 05:09:39;;;;;;;;;;;;;;;;;;;;;
2022/05/11 05:12:21;;;;;;;8.18;3.42;;;17.10;98.70;;;;;;5108403;27;40148;-83
2022/05/11 05:15:17;;;;;;;5.05;2.80;;;17.10;98.70;;;;;;5108900;27;20538;-88
2022/05/11 05:17:52;;;;;;;5.80;3.28;;;17.60;98.80;;;;;;5111070;27;20051;-83
2022/05/11 05:20:22;;;;;;;9.25;3.30;;;17.10;98.70;;;;;;5111449;27;20052;-84
2022/05/11 05:23:01;;;;;;;6.85;4.03;;;17.10;98.80;;;;;;5109136;27;20116;-81
2022/05/11 05:25:48;;;;;;;4.57;3.00;;;17.10;98.70;;;;;;5116480;27;20117;-81
2022/05/11 05:31:11;;;;;;;5.63;2.67;;;17.00;98.70;;;;;;5114008;27;21262;-81
2022/05/11 05:33:44;;;;;;;7.18;3.72;;;17.20;98.60;;;;;;5110129;27;20093;-82
2022/05/11 05:36:19;;;;;;;7.43;3.17;;;17.20;98.60;;;;;;5110913;27;20056;-82
2022/05/11 05:38:58;;;;;;;8.98;3.40;;;17.40;98.60;;;;;;5127694;27;20040;-83
2022/05/11 05:41:28;;;;;;;4.75;2.50;;;17.30;98.60;;;;;;5106899;27;20078;-81
2022/05/11 05:44:15;;;;;;;6.00;3.42;;;17.20;98.60;;;;;;5115268;27;20035;-85
2022/05/11 05:46:57;;;;;;;;;;;;;;;;;;;;;
2022/05/11 05:49:24;;;;;;;;;;;17.10;98.60;;;;;;5108838;27;41889;-82
2022/05/11 05:51:55;;;;;;;5.35;2.92;;;17.20;98.60;;;;;;5114402;27;20440;-81
2022/05/11 05:54:36;;;;;;;7.18;3.13;;;17.10;98.60;;;;;;5112292;27;20093;-82
2022/05/11 05:57:16;;;;;;;5.40;3.63;;;17.60;98.70;;;;;;5112757;27;20120;-81
2022/05/11 05:59:46;;;;;;;5.70;3.17;;;17.50;98.60;;;;;;5109415;27;20120;-81
2022/05/11 06:02:24;;;;;;;8.93;3.47;;;17.10;98.50;;;;;;5115260;27;20054;-81
2022/05/11 06:04:54;;;;;;;7.70;3.63;;;17.30;98.60;;;;;;5113272;27;20513;-81
2022/05/11 06:07:28;;;;;;;5.55;3.47;;;17.10;98.60;;;;;;5114421;27;20055;-81
2022/05/11 06:09:54;;;;;;;5.40;2.88;;;17.20;98.60;;;;;;5110487;27;20069;-81
2022/05/11 06:12:24;;;;;;;7.65;4.03;;;17.20;98.70;;;;;;5114582;27;20046;-82
2022/05/11 06:14:55;;;;;;;7.22;3.20;;;17.10;98.70;;;;;;5113874;27;20046;-82
2022/05/11 06:17:33;;;;;;;5.68;2.90;;;17.20;98.80;;;;;;5109946;27;20051;-83
2022/05/11 06:20:08;;;;;;;8.70;3.40;;;17.20;98.80;;;;;;5112199;27;20048;-86
2022/05/11 06:22:50;;;;;;;4.22;2.90;;;17.10;99.10;;;;;;5074490;28;20214;-83
2022/05/11 06:25:53;;;;;;;7.03;3.45;;;17.40;98.90;;;;;;5056238;28;20049;-84
2022/05/11 06:28:30;;;;;;;5.85;3.20;;;17.20;98.90;;;;;;5073983;28;21002;-83
2022/05/11 06:31:30;;;;;;;7.18;3.70;;;17.90;99.10;;;;;;5056387;28;20079;-83
2022/05/11 06:34:09;;;;;;;7.70;3.05;;;17.30;99.30;;;;;;5074696;28;20709;-83
2022/05/11 06:37:07;;;;;;;7.40;3.80;;;17.30;99.10;;;;;;5060196;28;20215;-84
2022/05/11 06:40:10;;;;;;;7.43;3.25;;;16.90;99.00;;;;;;5036179;28;20613;-83
2022/05/11 06:42:56;;;;;;;8.23;3.25;;;17.30;99.20;;;;;;5036020;28;20506;-83
2022/05/11 06:45:39;;;;;;;4.97;3.03;;;17.30;99.20;;;;;;5036513;28;20874;-83
2022/05/11 06:48:23;;;;;;;5.60;3.08;;;17.30;99.20;;;;;;5085006;27;20075;-84
2022/05/11 06:50:59;;;;;;;6.78;2.85;;;17.30;99.30;;;;;;5098352;27;20053;-84
2022/05/11 06:59:42;;;;;;;5.55;3.08;;;17.30;99.40;;;;;;5118293;27;20047;-84
2022/05/11 07:02:34;;;;;;;7.15;3.20;;;17.40;99.50;;;;;;5116265;27;20028;-84
2022/05/11 07:05:03;;;;;;;7.22;3.10;;;17.40;99.60;;;;;;5090006;27;20058;-85
2022/05/11 07:07:53;;;;;;;8.18;4.28;;;17.40;99.70;;;;;;5100081;27;20071;-85
2022/05/11 07:10:31;;;;;;;3.80;3.08;;;17.40;99.70;;;;;;5090807;27;20043;-84
2022/05/11 07:13:29;;;;;;;13.90;4.15;;;17.50;99.80;;;;;;5107564;27;20135;-83
2022/05/11 07:16:31;;;;;;;;;;;;;;;;;;;;;
2022/05/11 07:22:13;;;;;;;8.90;2.90;;;17.40;99.90;;;;;;5108638;27;22014;-85
2022/05/11 07:25:15;;;;;;;11.02;3.03;;;17.50;99.90;;;;;;5098547;27;20047;-85
2022/05/11 07:28:04;;;;;;;4.93;2.72;;;17.60;99.90;;;;;;5096707;27;20051;-85
2022/05/11 07:30:49;;;;;;;5.00;3.33;;;17.60;99.90;;;;;;5116034;27;20043;-85
2022/05/11 07:33:33;;;;;;;5.43;2.72;;;17.10;99.90;;;;;;5099226;27;20200;-85
2022/05/11 07:36:15;;;;;;;5.50;3.03;;;16.70;99.90;;;;;;5125356;27;20055;-85
2022/05/11 07:42:22;;;;;;;5.78;2.83;;;17.90;99.90;;;;;;5137774;27;20043;-85
2022/05/11 07:45:06;;;;;;;3.85;3.00;;;18.70;99.90;;;;;;5119634;27;20042;-85
2022/05/11 07:48:13;;;;;;;8.25;3.30;;;17.70;99.90;;;;;;5131324;27;20513;-85
2022/05/11 07:51:05;;;;;;;5.57;2.85;;;17.70;99.90;;;;;;5136911;27;20048;-86
2022/05/11 07:53:51;;;;;;;;;;;;;;;;;;;;;
2022/05/11 08:02:45;;;;;;;;;;;;;;;;;;;;;
2022/05/11 08:08:31;;;;;;;;;;;;;;;;;;;;;
2022/05/11 08:11:10;;;;;;;3.97;2.13;;;17.90;99.90;;;;;;5135101;27;44209;-84
2022/05/11 08:13:47;;;;;;;3.60;2.10;;;18.00;99.90;;;;;;5135022;27;20077;-85
2022/05/11 08:16:36;;;;;;;6.55;2.00;;;18.00;99.90;;;;;;5142572;27;20103;-84
2022/05/11 08:19:19;;;;;;;4.70;2.45;;;18.00;99.90;;;;;;5133546;27;20043;-84
2022/05/11 08:21:56;;;;;;;5.25;3.20;;;18.30;99.90;;;;;;5151742;27;20064;-85
2022/05/11 08:27:32;;;;;;;4.25;2.03;;;17.60;99.90;;;;;;5141273;27;20138;-84
2022/05/11 08:33:22;;;;;;;4.45;1.98;;;18.10;99.90;;;;;;5139290;27;20043;-85
2022/05/11 08:36:03;;;;;;;6.25;2.50;;;18.30;99.90;;;;;;5116515;27;20055;-84
2022/05/11 08:38:55;;;;;;;3.33;2.10;;;18.10;99.90;;;;;;5108532;27;20035;-84
2022/05/11 08:41:53;;;;;;;4.50;2.10;;;17.50;99.90;;;;;;5115966;27;20535;-84
2022/05/11 08:44:39;;;;;;;3.70;1.48;;;18.50;99.90;;;;;;5115279;27;20052;-84
2022/05/11 08:47:30;;;;;;;3.60;1.70;;;18.30;99.90;;;;;;5106680;27;20040;-84
2022/05/11 08:50:26;;;;;;;2.47;1.95;;;18.30;99.90;;;;;;5117154;27;20113;-84
2022/05/11 08:53:28;;;;;;;;;;;;;;;;;;;;;
2022/05/11 08:56:35;;;;;;;3.97;1.80;;;18.40;99.90;;;;;;5115944;27;43921;-85
2022/05/11 09:02:29;;;;;;;4.45;1.85;;;18.10;99.90;;;;;;5112898;27;20055;-84
2022/05/11 09:05:02;;;;;;;4.45;1.45;;;18.50;99.90;;;;;;5115405;27;20040;-84
2022/05/11 09:07:51;;;;;;;;;;;;;;;;;;;;;
2022/05/11 09:10:41;;;;;;;3.35;2.05;;;18.50;99.90;;;;;;5115616;27;43632;-84
2022/05/11 09:13:26;;;;;;;3.17;1.40;;;18.60;99.90;;;;;;5124118;27;20100;-85
2022/05/11 09:16:39;;;;;;;3.72;1.85;;;18.60;99.90;;;;;;5115864;27;20044;-87
2022/05/11 09:19:36;;;;;;;4.22;2.00;;;18.60;99.90;;;;;;5114242;27;20044;-85
2022/05/11 09:22:17;;;;;;;4.50;2.10;;;18.60;99.90;;;;;;5130702;27;20131;-86
2022/05/11 09:25:22;;;;;;;4.07;1.87;;;18.70;99.90;;;;;;5108027;27;20093;-85
2022/05/11 09:27:54;;;;;;;3.47;1.85;;;18.50;99.90;;;;;;5108806;27;20131;-85
2022/05/11 09:30:33;;;;;;;5.65;2.33;;;18.40;99.90;;;;;;5106155;27;20044;-85
2022/05/11 09:33:38;;;;;;;3.72;1.30;;;18.50;99.90;;;;;;5117472;27;20058;-84
2022/05/11 09:36:36;;;;;;;4.82;1.58;;;18.90;99.90;;;;;;5076346;27;20105;-84
2022/05/11 09:39:25;;;;;;;7.18;2.00;;;18.90;99.90;;;;;;5114128;27;20139;-84
2022/05/11 09:42:26;;;;;;;5.72;2.00;;;19.00;99.90;;;;;;5119379;27;20047;-85
2022/05/11 09:45:04;;;;;;;2.88;1.50;;;18.80;99.90;;;;;;5119027;27;20039;-84
2022/05/11 09:50:59;;;;;;;3.70;1.25;;;18.90;99.90;;;;;;5105458;27;20055;-84
2022/05/11 09:53:55;;;;;;;1.90;1.10;;;19.00;99.90;;;;;;5117433;27;20047;-83
2022/05/11 09:59:49;;;;;;;1.90;1.23;;;19.00;99.40;;;;;;5111701;27;20048;-84
2022/05/11 10:03:06;;;;;;;3.75;1.95;;;19.00;99.40;;;;;;5119267;27;20185;-84
2022/05/11 10:08:50;;;;;;;4.15;2.08;;;19.70;99.30;;;;;;5117605;27;20059;-84
2022/05/11 10:11:49;;;;;;;5.40;2.08;;;19.10;99.20;;;;;;5067366;28;20048;-84
2022/05/11 10:24:54;;;;;;;2.10;1.30;;;19.30;99.10;;;;;;5068501;28;20064;-83
2022/05/11 10:27:37;;;;;;;4.68;1.70;;;19.30;98.90;;;;;;5060597;28;20069;-82
2022/05/11 10:30:37;;;;;;;3.80;1.58;;;19.40;98.80;;;;;;5067510;28;20534;-83
2022/05/11 10:33:44;;;;;;;3.25;1.40;;;19.40;98.70;;;;;;5059021;28;20083;-84
2022/05/11 10:36:42;;;;;;;3.47;1.83;;;19.40;98.60;;;;;;5064768;28;20048;-84
2022/05/11 10:39:46;;;;;;;3.53;1.50;;;19.40;98.40;;;;;;5066364;28;20549;-84
2022/05/11 10:42:51;;;;;;;2.88;1.42;;;19.50;98.40;;;;;;5088165;27;20056;-83
2022/05/11 10:46:05;;;;;;;7.47;3.00;;;19.10;98.20;;;;;;5102796;27;20047;-84
2022/05/11 10:49:14;;;;;;;3.60;1.83;;;19.50;98.30;;;;;;5092663;27;20779;-84
2022/05/11 10:56:00;;;;;;;3.92;1.40;;;19.70;98.20;;;;;;5131212;27;20039;-83
2022/05/11 10:59:11;;;;;;;2.42;1.45;;;19.80;98.10;;;;;;5103743;27;20623;-83
2022/05/11 11:01:56;;;;;;;4.70;1.70;;;19.90;97.90;;;;;;5128504;27;20575;-83
2022/05/11 11:05:02;;;;;;;2.70;1.45;;;19.90;97.80;;;;;;5104196;27;20035;-84
2022/05/11 11:08:34;;;;;;;2.05;1.30;;;19.90;97.70;;;;;;5102615;27;20035;-84
2022/05/11 11:11:25;;;;;;;2.03;1.55;;;20.00;97.80;;;;;;5037003;28;20446;-85
2022/05/11 11:14:14;;;;;;;5.75;2.75;;;20.00;97.90;;;;;;5045107;28;20800;-84
2022/05/11 11:16:54;;;;;;;3.60;1.30;;;20.00;97.70;;;;;;5125608;27;20055;-84
2022/05/11 11:19:34;;;;;;;3.78;1.20;;;20.50;97.80;;;;;;5102490;27;20047;-85
2022/05/11 11:22:24;;;;;;;1.55;0.90;;;20.00;97.70;;;;;;5111039;27;20611;-84
2022/05/11 11:25:14;;;;;;;1.85;1.30;;;20.10;97.70;;;;;;5103118;27;20158;-85
2022/05/11 11:28:10;;;;;;;2.05;1.20;;;20.00;97.80;;;;;;5105058;27;20051;-85
2022/05/11 11:31:10;;;;;;;2.28;1.10;;;20.00;97.70;;;;;;5102889;27;20058;-85
2022/05/11 11:34:33;;;;;;;2.55;0.90;;;19.70;97.60;;;;;;5102802;27;20039;-85
2022/05/11 11:37:32;;;;;;;2.50;1.30;;;20.40;97.60;;;;;;5032500;28;20046;-84
2022/05/11 11:40:25;;;;;;;1.42;0.90;;;20.10;97.50;;;;;;5093541;27;20532;-84
2022/05/11 11:47:05;;;;;;;1.30;0.80;;;20.10;97.60;;;;;;5149514;27;20051;-84
2022/05/11 11:50:08;;;;;;;2.95;1.20;;;20.00;97.50;;;;;;5133673;27;20057;-84
2022/05/11 11:53:09;;;;;;;2.42;0.85;;;20.30;97.50;;;;;;5131101;27;20938;-85
2022/05/11 11:55:58;;;;;;;1.90;1.00;;;20.30;97.60;;;;;;5008041;28;20050;-85
2022/05/11 11:58:41;;;;;;;1.33;0.82;;;20.20;97.70;;;;;;5059394;28;20056;-84
2022/05/11 12:01:28;;;;;;;2.67;0.95;;;20.50;97.80;;;;;;5050143;28;20470;-85
2022/05/11 12:04:35;;;;;;;2.88;1.92;;;20.20;97.60;;;;;;5050840;28;20043;-84
2022/05/11 12:16:30;;;;;;;1.17;1.00;;;20.60;97.60;;;;;;5065507;28;20057;-84
2022/05/11 12:19:45;;;;;;;2.75;1.05;;;20.60;97.60;;;;;;5043318;28;20053;-84
2022/05/11 12:22:31;;;;;;;3.35;1.13;;;21.10;97.60;;;;;;5048486;28;20180;-84
2022/05/11 12:25:29;;;;;;;1.60;0.90;;;20.80;97.50;;;;;;5039359;28;20519;-84
2022/05/11 12:28:29;;;;;;;3.25;1.40;;;20.80;97.50;;;;;;5119344;27;20039;-83
2022/05/11 12:31:14;;;;;;;1.67;1.00;;;20.90;97.50;;;;;;5120202;27;20890;-83
2022/05/11 12:34:16;;;;;;;5.70;2.03;;;20.80;97.50;;;;;;5080217;27;20051;-84
2022/05/11 12:37:22;;;;;;;1.38;0.95;;;21.10;97.50;;;;;;5117791;27;20103;-84
2022/05/11 12:40:08;;;;;;;3.85;0.93;;;21.20;97.50;;;;;;5108596;27;20052;-83
2022/05/11 12:42:47;;;;;;;2.20;1.35;;;21.20;97.50;;;;;;5128519;27;20051;-83
2022/05/11 12:45:42;;;;;;;3.25;1.00;;;21.30;97.40;;;;;;5133767;27;20181;-83
2022/05/11 12:48:50;;;;;;;;;;;;;;;;;;;;;
2022/05/11 12:51:48;;;;;;;1.23;1.10;;;21.40;97.30;;;;;;5128358;27;41889;-85
2022/05/11 12:54:36;;;;;;;3.75;1.08;;;21.40;97.20;;;;;;5111140;27;20047;-84
2022/05/11 13:03:46;;;;;;;3.50;1.23;;;21.60;97.10;;;;;;5033945;28;20604;-84
2022/05/11 13:06:43;;;;;;;1.02;0.93;;;21.80;96.70;;;;;;5055531;27;20051;-83
2022/05/11 13:10:03;;;;;;;3.60;0.88;;;21.80;96.60;;;;;;5127868;27;20052;-84
2022/05/11 13:13:01;;;;;;;1.27;0.82;;;22.00;96.60;;;;;;5115889;27;20566;-84
2022/05/11 13:15:54;;;;;;;2.55;0.98;;;21.90;96.40;;;;;;5105271;27;20055;-84
2022/05/11 13:18:46;;;;;;;;;;;;;;;;;;;;;
2022/05/11 13:21:36;;;;;;;2.28;0.90;;;22.60;96.10;;;;;;5135673;27;45418;-84
2022/05/11 13:24:19;;;;;;;1.52;0.90;;;21.60;95.70;;;;;;5137510;27;20066;-84
2022/05/11 13:27:04;;;;;;;0.80;0.80;;;21.80;95.80;;;;;;5128692;27;20050;-83
2022/05/11 13:29:44;;;;;;;2.05;1.00;;;21.80;95.60;;;;;;5109862;27;20067;-84
2022/05/11 13:32:31;;;;;;;4.15;0.98;;;21.70;95.60;;;;;;5136360;27;20039;-85
2022/05/11 13:35:21;;;;;;;1.67;0.90;;;21.70;95.50;;;;;;5118433;27;20041;-85
2022/05/11 13:38:16;;;;;;;2.67;1.10;;;21.80;95.40;;;;;;5135948;27;20051;-83
2022/05/11 13:40:54;;;;;;;2.83;1.00;;;22.30;95.60;;;;;;5094425;27;21481;-84
2022/05/11 13:43:33;;;;;;;2.60;0.95;;;21.80;95.50;;;;;;5070254;28;20052;-84
2022/05/11 13:46:26;;;;;;;;;;;;;;;;;;;;;
2022/05/11 13:49:37;;;;;;;0.90;0.82;;;21.90;95.60;;;;;;5093367;27;39424;-85
2022/05/11 13:52:27;;;;;;;1.75;1.00;;;21.90;95.60;;;;;;5076069;27;20671;-85
2022/05/11 13:55:10;;;;;;;1.70;0.85;;;21.80;95.50;;;;;;5076954;28;20091;-85
2022/05/11 13:58:24;;;;;;;;;;;;;;;;;;;;;
2022/05/11 14:01:12;;;;;;;2.20;1.02;;;22.00;95.60;;;;;;5093712;28;39185;-84
2022/05/11 14:04:13;;;;;;;1.67;0.80;;;21.80;95.70;;;;;;5076765;28;20239;-84
2022/05/11 14:07:13;;;;;;;1.48;1.05;;;22.10;95.80;;;;;;5077767;28;20087;-83
2022/05/11 14:10:11;;;;;;;3.75;1.25;;;21.70;95.90;;;;;;5078064;28;20119;-84
2022/05/11 14:12:59;;;;;;;4.50;1.40;;;22.30;96.10;;;;;;5111379;27;20051;-84
2022/05/11 14:15:38;;;;;;;1.13;0.75;;;21.70;95.90;;;;;;5116986;27;20055;-83
2022/05/11 14:18:24;;;;;;;1.80;1.08;;;22.10;96.00;;;;;;5119114;27;20066;-85
2022/05/11 14:21:00;;;;;;;1.13;0.85;;;22.10;96.00;;;;;;5140750;27;20092;-84
2022/05/11 14:23:47;;;;;;;1.75;0.95;;;22.10;96.10;;;;;;5131396;27;20081;-84
2022/05/11 14:26:18;;;;;;;2.47;1.98;;;22.10;96.10;;;;;;5133036;27;20031;-84
2022/05/11 14:29:00;;;;;;;1.40;1.30;;;22.40;96.10;;;;;;5117278;27;20545;-83
2022/05/11 14:31:48;;;;;;;;;;;22.50;96.10;;;;;;5118449;27;20960;-84
2022/05/11 14:34:33;;;;;;;0.70;0.70;;;22.70;96.10;;;;;;5110555;27;20509;-84
2022/05/11 14:37:11;;;;;;;4.18;1.02;;;22.70;96.10;;;;;;5107690;27;20044;-84
2022/05/11 14:39:56;;;;;;;1.95;0.98;;;22.90;96.10;;;;;;5090244;27;20055;-86
2022/05/11 14:42:54;;;;;;;9.68;1.45;;;23.30;96.10;;;;;;5081352;27;20201;-84
2022/05/11 14:46:05;;;;;;;2.13;0.68;;;23.00;95.80;;;;;;5102549;27;20057;-85
2022/05/11 14:49:22;;;;;;;1.60;1.00;;;23.30;95.80;;;;;;5099239;27;20536;-85
2022/05/11 14:52:01;;;;;;;2.63;1.45;;;23.20;95.70;;;;;;5082570;27;20056;-84
2022/05/11 15:04:03;;;;;;;2.78;1.00;;;23.40;95.70;;;;;;5130212;27;20320;-84
2022/05/11 15:07:12;;;;;;;2.15;1.67;;;23.30;95.70;;;;;;5128013;27;20044;-84
2022/05/11 15:09:56;;;;;;;2.45;0.93;;;23.10;95.70;;;;;;5121463;27;20043;-84
2022/05/11 15:15:57;;;;;;;1.58;0.77;;;23.00;95.90;;;;;;5119465;27;20051;-85
2022/05/11 15:19:05;;;;;;;1.35;1.20;;;22.90;95.80;;;;;;5111517;27;20044;-85
2022/05/11 15:22:14;;;;;;;0.90;0.90;;;22.60;95.70;;;;;;5119458;27;20055;-84
2022/05/11 15:25:11;;;;;;;2.38;1.27;;;22.80;95.80;;;;;;5133848;27;20105;-84
2022/05/11 15:28:11;;;;;;;1.40;1.05;;;22.70;95.90;;;;;;5116685;27;20066;-84
2022/05/11 15:30:56;;;;;;;1.42;0.68;;;22.70;96.00;;;;;;5108172;27;20177;-84
2022/05/11 15:33:50;;;;;;;;;;;;;;;;;;;;;
2022/05/11 15:36:42;;;;;;;1.75;1.35;;;22.60;96.00;;;;;;5116082;27;44512;-84
2022/05/11 15:39:18;;;;;;;2.40;1.08;;;22.60;96.00;;;;;;5134280;27;20063;-85
2022/05/11 15:42:03;;;;;;;1.88;1.02;;;22.60;96.00;;;;;;5130506;27;20070;-84
2022/05/11 15:44:37;;;;;;;2.83;1.17;;;22.40;96.10;;;;;;5120320;27;20051;-85
2022/05/11 15:47:21;;;;;;;4.20;1.02;;;22.60;96.20;;;;;;5129048;27;20495;-84
2022/05/11 15:50:13;;;;;;;1.65;1.35;;;22.60;96.10;;;;;;5111589;27;20513;-85
2022/05/11 15:55:58;;;;;;;2.20;1.17;;;22.60;96.30;;;;;;5138903;27;20051;-84
2022/05/11 15:58:41;;;;;;;1.02;0.90;;;22.50;96.20;;;;;;5149238;27;20074;-84
2022/05/11 16:01:24;;;;;;;3.58;1.00;;;22.40;96.20;;;;;;5122907;27;20044;-84
2022/05/11 16:04:32;;;;;;;2.33;0.80;;;22.60;96.20;;;;;;5124928;27;20208;-84
2022/05/11 16:07:21;;;;;;;1.70;1.25;;;22.70;96.30;;;;;;5117463;27;20086;-84
2022/05/11 16:10:16;;;;;;;1.48;0.95;;;22.80;96.40;;;;;;5121204;27;20055;-83
2022/05/11 16:12:59;;;;;;;2.28;1.10;;;22.40;96.10;;;;;;5112916;27;20529;-83
2022/05/11 16:24:49;;;;;;;1.45;1.05;;;22.80;96.20;;;;;;5136559;27;21280;-84
2022/05/11 16:27:48;;;;;;;1.83;1.10;;;22.80;96.30;;;;;;5135302;27;20821;-84
2022/05/11 16:30:23;;;;;;;1.35;0.90;;;22.80;96.30;;;;;;5113698;27;20130;-84
2022/05/11 16:32:56;;;;;;;2.25;0.90;;;22.60;96.10;;;;;;5117521;27;20047;-82
2022/05/11 16:35:37;;;;;;;2.85;1.20;;;22.80;96.10;;;;;;5117958;27;20043;-84
2022/05/11 16:38:21;;;;;;;1.42;0.95;;;22.80;96.10;;;;;;5117492;27;20409;-84
2022/05/11 16:41:23;;;;;;;1.90;1.30;;;22.70;96.20;;;;;;5114465;27;20433;-84
2022/05/11 16:43:53;;;;;;;;;;;23.10;96.30;;;;;;5108864;27;20036;-84
2022/05/11 16:46:29;;;;;;;1.90;1.10;;;22.70;96.20;;;;;;5114699;27;19919;-84
2022/05/11 16:49:08;;;;;;;1.45;1.25;;;22.70;96.30;;;;;;5131727;27;20040;-84
2022/05/11 16:52:02;;;;;;;1.17;0.90;;;23.00;96.30;;;;;;5108285;27;20724;-84
2022/05/11 16:55:03;;;;;;;2.30;1.33;;;23.30;96.30;;;;;;5108320;27;20048;-84
2022/05/11 16:58:23;;;;;;;;;;;;;;;;;;;;;
2022/05/11 17:01:20;;;;;;;1.92;0.88;;;22.70;96.10;;;;;;5115270;27;41379;-85
2022/05/11 17:06:44;;;;;;;1.30;1.00;;;22.70;96.10;;;;;;5117069;27;20044;-82